sensor_id;sensor_type;location;lat;lon;timestamp;P1;durP1;ratioP1;P2;durP2;ratioP2
59127;SDS011;44912;52.754;5.994;2022-09-09T00:01:08;5.07;;;2.78;;
59127;SDS011;44912;52.754;5.994;2022-09-09T00:06:31;5.22;;;3.03;;
59127;SDS011;44912;52.754;5.994;2022-09-09T00:09:22;7.72;;;3.08;;
59127;SDS011;44912;52.754;5.994;2022-09-09T00:11:53;5.45;;;2.90;;
59127;SDS011;44912;52.754;5.994;2022-09-09T00:14:31;6.93;;;3.40;;
59127;SDS011;44912;52.754;5.994;2022-09-09T00:17:14;6.00;;;3.33;;
59127;SDS011;44912;52.754;5.994;2022-09-09T00:20:11;7.00;;;3.33;;
59127;SDS011;44912;52.754;5.994;2022-09-09T00:22:58;7.35;;;3.40;;
59127;SDS011;44912;52.754;5.994;2022-09-09T00:25:37;7.78;;;3.35;;
59127;SDS011;44912;52.754;5.994;2022-09-09T00:28:18;8.68;;;3.50;;
59127;SDS011;44912;52.754;5.994;2022-09-09T00:30:47;6.28;;;3.20;;
59127;SDS011;44912;52.754;5.994;2022-09-09T00:33:13;6.80;;;3.53;;
59127;SDS011;44912;52.754;5.994;2022-09-09T00:36:17;6.47;;;3.40;;
59127;SDS011;44912;52.754;5.994;2022-09-09T00:38:45;7.18;;;3.60;;
59127;SDS011;44912;52.754;5.994;2022-09-09T00:44:14;7.95;;;3.50;;
59127;SDS011;44912;52.754;5.994;2022-09-09T00:46:59;7.20;;;3.50;;
59127;SDS011;44912;52.754;5.994;2022-09-09T00:50:06;7.70;;;3.78;;
59127;SDS011;44912;52.754;5.994;2022-09-09T00:52:45;9.13;;;3.85;;
59127;SDS011;44912;52.754;5.994;2022-09-09T00:57:48;8.52;;;3.80;;
59127;SDS011;44912;52.754;5.994;2022-09-09T01:00:27;7.95;;;4.22;;
59127;SDS011;44912;52.754;5.994;2022-09-09T01:03:02;9.30;;;4.10;;
59127;SDS011;44912;52.754;5.994;2022-09-09T01:06:13;10.23;;;4.72;;
59127;SDS011;44912;52.754;5.994;2022-09-09T01:12:11;8.45;;;4.70;;
59127;SDS011;44912;52.754;5.994;2022-09-09T01:14:48;7.68;;;4.90;;
59127;SDS011;44912;52.754;5.994;2022-09-09T01:17:19;12.63;;;5.07;;
59127;SDS011;44912;52.754;5.994;2022-09-09T01:20:02;8.95;;;4.95;;
59127;SDS011;44912;52.754;5.994;2022-09-09T01:25:13;9.70;;;5.10;;
59127;SDS011;44912;52.754;5.994;2022-09-09T01:28:03;9.18;;;5.45;;
59127;SDS011;44912;52.754;5.994;2022-09-09T01:30:33;11.25;;;5.20;;
59127;SDS011;44912;52.754;5.994;2022-09-09T01:33:03;8.25;;;4.90;;
59127;SDS011;44912;52.754;5.994;2022-09-09T01:35:37;8.82;;;4.97;;
59127;SDS011;44912;52.754;5.994;2022-09-09T01:38:11;8.65;;;4.78;;
59127;SDS011;44912;52.754;5.994;2022-09-09T01:40:38;8.98;;;4.40;;
59127;SDS011;44912;52.754;5.994;2022-09-09T01:43:04;10.52;;;4.90;;
59127;SDS011;44912;52.754;5.994;2022-09-09T01:45:31;8.20;;;4.43;;
59127;SDS011;44912;52.754;5.994;2022-09-09T01:47:57;9.05;;;4.55;;
59127;SDS011;44912;52.754;5.994;2022-09-09T01:50:23;8.05;;;4.18;;
59127;SDS011;44912;52.754;5.994;2022-09-09T01:52:50;8.48;;;3.80;;
59127;SDS011;44912;52.754;5.994;2022-09-09T01:55:30;6.82;;;3.45;;
59127;SDS011;44912;52.754;5.994;2022-09-09T02:01:06;7.38;;;3.30;;
59127;SDS011;44912;52.754;5.994;2022-09-09T02:03:41;8.52;;;3.95;;
59127;SDS011;44912;52.754;5.994;2022-09-09T02:06:25;7.85;;;3.55;;
59127;SDS011;44912;52.754;5.994;2022-09-09T02:09:04;7.03;;;3.40;;
59127;SDS011;44912;52.754;5.994;2022-09-09T02:11:31;5.32;;;2.33;;
59127;SDS011;44912;52.754;5.994;2022-09-09T02:14:03;5.57;;;2.35;;
59127;SDS011;44912;52.754;5.994;2022-09-09T02:19:01;4.35;;;1.85;;
59127;SDS011;44912;52.754;5.994;2022-09-09T02:21:37;3.75;;;1.83;;
59127;SDS011;44912;52.754;5.994;2022-09-09T02:24:05;6.00;;;2.20;;
59127;SDS011;44912;52.754;5.994;2022-09-09T02:26:35;5.22;;;2.13;;
59127;SDS011;44912;52.754;5.994;2022-09-09T02:29:06;3.97;;;1.80;;
59127;SDS011;44912;52.754;5.994;2022-09-09T02:31:35;4.93;;;2.03;;
59127;SDS011;44912;52.754;5.994;2022-09-09T02:34:03;4.80;;;1.98;;
59127;SDS011;44912;52.754;5.994;2022-09-09T02:36:32;6.40;;;1.90;;
59127;SDS011;44912;52.754;5.994;2022-09-09T02:39:00;6.05;;;2.00;;
59127;SDS011;44912;52.754;5.994;2022-09-09T02:41:28;5.50;;;1.83;;
59127;SDS011;44912;52.754;5.994;2022-09-09T02:44:01;6.55;;;2.53;;
59127;SDS011;44912;52.754;5.994;2022-09-09T02:49:35;7.53;;;3.28;;
59127;SDS011;44912;52.754;5.994;2022-09-09T02:52:22;6.75;;;3.00;;
59127;SDS011;44912;52.754;5.994;2022-09-09T02:54:57;8.50;;;3.10;;
59127;SDS011;44912;52.754;5.994;2022-09-09T02:57:29;9.00;;;3.40;;
59127;SDS011;44912;52.754;5.994;2022-09-09T02:59:57;8.77;;;3.33;;
59127;SDS011;44912;52.754;5.994;2022-09-09T03:02:23;6.90;;;3.30;;
59127;SDS011;44912;52.754;5.994;2022-09-09T03:04:50;6.78;;;2.92;;
59127;SDS011;44912;52.754;5.994;2022-09-09T03:07:17;5.65;;;2.90;;
59127;SDS011;44912;52.754;5.994;2022-09-09T03:09:43;7.07;;;3.22;;
59127;SDS011;44912;52.754;5.994;2022-09-09T03:12:09;6.70;;;3.10;;
59127;SDS011;44912;52.754;5.994;2022-09-09T03:14:36;6.78;;;2.95;;
59127;SDS011;44912;52.754;5.994;2022-09-09T03:17:03;6.95;;;3.17;;
59127;SDS011;44912;52.754;5.994;2022-09-09T03:19:29;7.30;;;3.40;;
59127;SDS011;44912;52.754;5.994;2022-09-09T03:21:55;6.47;;;3.33;;
59127;SDS011;44912;52.754;5.994;2022-09-09T03:24:21;7.05;;;3.20;;
59127;SDS011;44912;52.754;5.994;2022-09-09T03:26:47;8.60;;;3.15;;
59127;SDS011;44912;52.754;5.994;2022-09-09T03:29:13;6.80;;;3.28;;
59127;SDS011;44912;52.754;5.994;2022-09-09T03:31:39;6.53;;;3.30;;
59127;SDS011;44912;52.754;5.994;2022-09-09T03:34:05;8.07;;;3.00;;
59127;SDS011;44912;52.754;5.994;2022-09-09T03:36:31;7.85;;;3.20;;
59127;SDS011;44912;52.754;5.994;2022-09-09T03:38:57;6.82;;;3.30;;
59127;SDS011;44912;52.754;5.994;2022-09-09T03:41:23;6.88;;;3.15;;
59127;SDS011;44912;52.754;5.994;2022-09-09T03:43:53;7.93;;;3.03;;
59127;SDS011;44912;52.754;5.994;2022-09-09T03:46:23;6.45;;;2.97;;
59127;SDS011;44912;52.754;5.994;2022-09-09T03:48:50;5.35;;;2.70;;
59127;SDS011;44912;52.754;5.994;2022-09-09T03:51:17;4.85;;;2.65;;
59127;SDS011;44912;52.754;5.994;2022-09-09T03:53:43;5.45;;;3.03;;
59127;SDS011;44912;52.754;5.994;2022-09-09T03:56:09;7.45;;;3.38;;
59127;SDS011;44912;52.754;5.994;2022-09-09T03:58:35;7.95;;;3.38;;
59127;SDS011;44912;52.754;5.994;2022-09-09T04:01:07;7.43;;;3.30;;
59127;SDS011;44912;52.754;5.994;2022-09-09T04:03:34;6.82;;;3.78;;
59127;SDS011;44912;52.754;5.994;2022-09-09T04:06:00;8.88;;;3.90;;
59127;SDS011;44912;52.754;5.994;2022-09-09T04:08:28;8.60;;;4.10;;
59127;SDS011;44912;52.754;5.994;2022-09-09T04:10:56;6.53;;;3.72;;
59127;SDS011;44912;52.754;5.994;2022-09-09T04:13:23;7.47;;;4.18;;
59127;SDS011;44912;52.754;5.994;2022-09-09T04:15:53;7.95;;;3.97;;
59127;SDS011;44912;52.754;5.994;2022-09-09T04:18:20;8.35;;;4.30;;
59127;SDS011;44912;52.754;5.994;2022-09-09T04:20:50;8.30;;;3.95;;
59127;SDS011;44912;52.754;5.994;2022-09-09T04:23:17;9.15;;;4.85;;
59127;SDS011;44912;52.754;5.994;2022-09-09T04:25:48;10.98;;;5.20;;
59127;SDS011;44912;52.754;5.994;2022-09-09T04:28:16;9.75;;;4.68;;
59127;SDS011;44912;52.754;5.994;2022-09-09T04:30:42;8.35;;;4.55;;
59127;SDS011;44912;52.754;5.994;2022-09-09T04:33:09;9.23;;;4.82;;
59127;SDS011;44912;52.754;5.994;2022-09-09T04:35:35;9.88;;;4.63;;
59127;SDS011;44912;52.754;5.994;2022-09-09T04:38:01;8.73;;;4.75;;
59127;SDS011;44912;52.754;5.994;2022-09-09T04:40:28;8.43;;;4.75;;
59127;SDS011;44912;52.754;5.994;2022-09-09T04:42:54;9.25;;;5.25;;
59127;SDS011;44912;52.754;5.994;2022-09-09T04:45:22;9.00;;;5.70;;
59127;SDS011;44912;52.754;5.994;2022-09-09T04:47:48;11.07;;;6.50;;
59127;SDS011;44912;52.754;5.994;2022-09-09T04:50:14;11.70;;;6.63;;
59127;SDS011;44912;52.754;5.994;2022-09-09T04:52:40;10.20;;;6.18;;
59127;SDS011;44912;52.754;5.994;2022-09-09T04:55:06;10.98;;;7.22;;
59127;SDS011;44912;52.754;5.994;2022-09-09T04:57:32;11.27;;;7.18;;
59127;SDS011;44912;52.754;5.994;2022-09-09T04:59:59;10.40;;;7.00;;
59127;SDS011;44912;52.754;5.994;2022-09-09T05:02:25;10.57;;;6.90;;
59127;SDS011;44912;52.754;5.994;2022-09-09T05:04:51;11.15;;;7.00;;
59127;SDS011;44912;52.754;5.994;2022-09-09T05:07:16;10.43;;;6.95;;
59127;SDS011;44912;52.754;5.994;2022-09-09T05:09:42;13.70;;;7.03;;
59127;SDS011;44912;52.754;5.994;2022-09-09T05:12:09;10.00;;;7.40;;
59127;SDS011;44912;52.754;5.994;2022-09-09T05:14:55;11.43;;;6.30;;
59127;SDS011;44912;52.754;5.994;2022-09-09T05:17:20;14.73;;;7.53;;
59127;SDS011;44912;52.754;5.994;2022-09-09T05:19:46;11.52;;;6.68;;
59127;SDS011;44912;52.754;5.994;2022-09-09T05:22:11;11.18;;;6.70;;
59127;SDS011;44912;52.754;5.994;2022-09-09T05:24:37;10.05;;;6.85;;
59127;SDS011;44912;52.754;5.994;2022-09-09T05:27:03;10.70;;;6.72;;
59127;SDS011;44912;52.754;5.994;2022-09-09T05:29:30;12.57;;;6.90;;
59127;SDS011;44912;52.754;5.994;2022-09-09T05:31:58;10.48;;;6.53;;
59127;SDS011;44912;52.754;5.994;2022-09-09T05:34:24;10.15;;;6.50;;
59127;SDS011;44912;52.754;5.994;2022-09-09T05:36:49;10.63;;;7.35;;
59127;SDS011;44912;52.754;5.994;2022-09-09T05:39:17;10.63;;;6.70;;
59127;SDS011;44912;52.754;5.994;2022-09-09T05:41:43;9.35;;;6.18;;
59127;SDS011;44912;52.754;5.994;2022-09-09T05:44:08;10.32;;;6.40;;
59127;SDS011;44912;52.754;5.994;2022-09-09T05:46:34;11.55;;;7.15;;
59127;SDS011;44912;52.754;5.994;2022-09-09T05:48:59;11.40;;;6.60;;
59127;SDS011;44912;52.754;5.994;2022-09-09T05:51:27;11.50;;;6.95;;
59127;SDS011;44912;52.754;5.994;2022-09-09T05:53:55;10.32;;;6.50;;
59127;SDS011;44912;52.754;5.994;2022-09-09T05:56:24;10.63;;;6.18;;
59127;SDS011;44912;52.754;5.994;2022-09-09T05:58:51;9.45;;;6.35;;
59127;SDS011;44912;52.754;5.994;2022-09-09T06:01:26;8.85;;;6.00;;
59127;SDS011;44912;52.754;5.994;2022-09-09T06:03:56;9.75;;;6.22;;
59127;SDS011;44912;52.754;5.994;2022-09-09T06:06:22;10.52;;;6.20;;
59127;SDS011;44912;52.754;5.994;2022-09-09T06:08:51;10.68;;;6.22;;
59127;SDS011;44912;52.754;5.994;2022-09-09T06:11:22;10.40;;;6.63;;
59127;SDS011;44912;52.754;5.994;2022-09-09T06:13:49;9.10;;;5.97;;
59127;SDS011;44912;52.754;5.994;2022-09-09T06:16:20;9.32;;;5.97;;
59127;SDS011;44912;52.754;5.994;2022-09-09T06:18:48;8.82;;;6.25;;
59127;SDS011;44912;52.754;5.994;2022-09-09T06:21:16;9.73;;;6.18;;
59127;SDS011;44912;52.754;5.994;2022-09-09T06:23:46;9.90;;;5.63;;
59127;SDS011;44912;52.754;5.994;2022-09-09T06:26:16;9.18;;;5.88;;
59127;SDS011;44912;52.754;5.994;2022-09-09T06:28:44;8.30;;;5.80;;
59127;SDS011;44912;52.754;5.994;2022-09-09T06:31:11;11.20;;;5.80;;
59127;SDS011;44912;52.754;5.994;2022-09-09T06:33:39;10.55;;;6.20;;
59127;SDS011;44912;52.754;5.994;2022-09-09T06:36:16;10.88;;;6.30;;
59127;SDS011;44912;52.754;5.994;2022-09-09T06:38:49;8.95;;;5.47;;
59127;SDS011;44912;52.754;5.994;2022-09-09T06:41:16;11.02;;;5.50;;
59127;SDS011;44912;52.754;5.994;2022-09-09T06:43:43;9.35;;;5.60;;
59127;SDS011;44912;52.754;5.994;2022-09-09T06:46:11;10.02;;;5.65;;
59127;SDS011;44912;52.754;5.994;2022-09-09T06:48:38;11.52;;;5.15;;
59127;SDS011;44912;52.754;5.994;2022-09-09T06:51:14;8.50;;;4.97;;
59127;SDS011;44912;52.754;5.994;2022-09-09T06:53:40;8.23;;;4.75;;
59127;SDS011;44912;52.754;5.994;2022-09-09T06:58:39;8.07;;;4.32;;
59127;SDS011;44912;52.754;5.994;2022-09-09T07:01:09;9.35;;;4.78;;
59127;SDS011;44912;52.754;5.994;2022-09-09T07:03:37;9.43;;;4.50;;
59127;SDS011;44912;52.754;5.994;2022-09-09T07:06:04;10.52;;;4.72;;
59127;SDS011;44912;52.754;5.994;2022-09-09T07:08:30;9.27;;;4.20;;
59127;SDS011;44912;52.754;5.994;2022-09-09T07:11:01;8.93;;;4.10;;
59127;SDS011;44912;52.754;5.994;2022-09-09T07:13:29;8.77;;;4.40;;
59127;SDS011;44912;52.754;5.994;2022-09-09T07:16:02;8.52;;;4.15;;
59127;SDS011;44912;52.754;5.994;2022-09-09T07:18:32;9.95;;;4.45;;
59127;SDS011;44912;52.754;5.994;2022-09-09T07:20:58;10.65;;;4.30;;
59127;SDS011;44912;52.754;5.994;2022-09-09T07:23:24;10.63;;;4.10;;
59127;SDS011;44912;52.754;5.994;2022-09-09T07:25:50;9.18;;;4.20;;
59127;SDS011;44912;52.754;5.994;2022-09-09T07:28:17;11.10;;;4.13;;
59127;SDS011;44912;52.754;5.994;2022-09-09T07:30:45;8.52;;;4.07;;
59127;SDS011;44912;52.754;5.994;2022-09-09T07:33:21;10.05;;;3.58;;
59127;SDS011;44912;52.754;5.994;2022-09-09T07:35:47;8.20;;;3.80;;
59127;SDS011;44912;52.754;5.994;2022-09-09T07:38:12;8.52;;;4.18;;
59127;SDS011;44912;52.754;5.994;2022-09-09T07:40:39;9.77;;;4.30;;
59127;SDS011;44912;52.754;5.994;2022-09-09T07:43:05;10.63;;;4.70;;
59127;SDS011;44912;52.754;5.994;2022-09-09T07:45:30;9.82;;;3.95;;
59127;SDS011;44912;52.754;5.994;2022-09-09T07:47:58;9.93;;;4.20;;
59127;SDS011;44912;52.754;5.994;2022-09-09T07:50:24;9.35;;;4.03;;
59127;SDS011;44912;52.754;5.994;2022-09-09T07:52:52;8.48;;;3.85;;
59127;SDS011;44912;52.754;5.994;2022-09-09T07:55:18;9.48;;;4.28;;
59127;SDS011;44912;52.754;5.994;2022-09-09T07:57:50;8.30;;;3.95;;
59127;SDS011;44912;52.754;5.994;2022-09-09T08:00:16;8.23;;;3.80;;
59127;SDS011;44912;52.754;5.994;2022-09-09T08:02:44;10.82;;;3.97;;
59127;SDS011;44912;52.754;5.994;2022-09-09T08:05:11;9.90;;;4.13;;
59127;SDS011;44912;52.754;5.994;2022-09-09T08:07:37;9.02;;;4.07;;
59127;SDS011;44912;52.754;5.994;2022-09-09T08:10:03;11.35;;;4.00;;
59127;SDS011;44912;52.754;5.994;2022-09-09T08:12:29;14.25;;;4.30;;
59127;SDS011;44912;52.754;5.994;2022-09-09T08:14:55;7.55;;;3.35;;
59127;SDS011;44912;52.754;5.994;2022-09-09T08:17:20;12.00;;;3.92;;
59127;SDS011;44912;52.754;5.994;2022-09-09T08:19:46;10.52;;;3.60;;
59127;SDS011;44912;52.754;5.994;2022-09-09T08:22:11;9.60;;;3.50;;
59127;SDS011;44912;52.754;5.994;2022-09-09T08:24:37;8.82;;;3.63;;
59127;SDS011;44912;52.754;5.994;2022-09-09T08:27:03;10.48;;;3.80;;
59127;SDS011;44912;52.754;5.994;2022-09-09T08:29:28;8.82;;;3.17;;
59127;SDS011;44912;52.754;5.994;2022-09-09T08:31:55;9.25;;;3.45;;
59127;SDS011;44912;52.754;5.994;2022-09-09T08:34:22;7.22;;;2.97;;
59127;SDS011;44912;52.754;5.994;2022-09-09T08:36:50;8.25;;;3.00;;
59127;SDS011;44912;52.754;5.994;2022-09-09T08:39:17;10.38;;;3.22;;
59127;SDS011;44912;52.754;5.994;2022-09-09T08:44:34;9.63;;;3.53;;
59127;SDS011;44912;52.754;5.994;2022-09-09T08:52:30;7.47;;;3.00;;
59127;SDS011;44912;52.754;5.994;2022-09-09T08:55:05;10.45;;;2.97;;
59127;SDS011;44912;52.754;5.994;2022-09-09T08:57:51;10.75;;;2.85;;
59127;SDS011;44912;52.754;5.994;2022-09-09T09:00:19;10.68;;;2.92;;
59127;SDS011;44912;52.754;5.994;2022-09-09T09:02:56;7.22;;;2.65;;
59127;SDS011;44912;52.754;5.994;2022-09-09T09:05:37;8.35;;;2.80;;
59127;SDS011;44912;52.754;5.994;2022-09-09T09:08:24;8.27;;;2.50;;
59127;SDS011;44912;52.754;5.994;2022-09-09T09:10:58;7.95;;;2.40;;
59127;SDS011;44912;52.754;5.994;2022-09-09T09:13:39;7.70;;;2.30;;
59127;SDS011;44912;52.754;5.994;2022-09-09T09:16:25;6.45;;;1.90;;
59127;SDS011;44912;52.754;5.994;2022-09-09T09:18:57;8.10;;;1.98;;
59127;SDS011;44912;52.754;5.994;2022-09-09T09:21:27;8.07;;;2.00;;
59127;SDS011;44912;52.754;5.994;2022-09-09T09:24:01;12.65;;;2.22;;
59127;SDS011;44912;52.754;5.994;2022-09-09T09:26:31;9.35;;;2.13;;
59127;SDS011;44912;52.754;5.994;2022-09-09T09:29:01;10.98;;;2.20;;
59127;SDS011;44912;52.754;5.994;2022-09-09T09:31:37;9.48;;;2.22;;
59127;SDS011;44912;52.754;5.994;2022-09-09T09:34:03;10.50;;;1.92;;
59127;SDS011;44912;52.754;5.994;2022-09-09T09:36:38;6.45;;;1.77;;
59127;SDS011;44912;52.754;5.994;2022-09-09T09:39:06;8.73;;;1.60;;
59127;SDS011;44912;52.754;5.994;2022-09-09T09:41:32;8.88;;;1.77;;
59127;SDS011;44912;52.754;5.994;2022-09-09T09:44:00;7.05;;;1.30;;
59127;SDS011;44912;52.754;5.994;2022-09-09T09:46:27;9.25;;;2.05;;
59127;SDS011;44912;52.754;5.994;2022-09-09T09:48:57;8.70;;;1.77;;
59127;SDS011;44912;52.754;5.994;2022-09-09T09:51:24;8.88;;;1.92;;
59127;SDS011;44912;52.754;5.994;2022-09-09T09:53:51;9.40;;;1.90;;
59127;SDS011;44912;52.754;5.994;2022-09-09T09:56:25;8.07;;;1.70;;
59127;SDS011;44912;52.754;5.994;2022-09-09T09:58:52;9.23;;;1.88;;
59127;SDS011;44912;52.754;5.994;2022-09-09T10:01:23;7.22;;;1.63;;
59127;SDS011;44912;52.754;5.994;2022-09-09T10:04:12;9.15;;;1.45;;
59127;SDS011;44912;52.754;5.994;2022-09-09T10:06:48;10.57;;;2.15;;
59127;SDS011;44912;52.754;5.994;2022-09-09T10:09:32;8.00;;;1.70;;
59127;SDS011;44912;52.754;5.994;2022-09-09T10:14:42;6.35;;;1.52;;
59127;SDS011;44912;52.754;5.994;2022-09-09T10:22:35;7.25;;;2.15;;
59127;SDS011;44912;52.754;5.994;2022-09-09T10:25:04;6.43;;;1.67;;
59127;SDS011;44912;52.754;5.994;2022-09-09T10:27:37;7.00;;;1.70;;
59127;SDS011;44912;52.754;5.994;2022-09-09T10:32:48;6.40;;;1.88;;
59127;SDS011;44912;52.754;5.994;2022-09-09T10:35:27;7.50;;;1.90;;
59127;SDS011;44912;52.754;5.994;2022-09-09T10:38:04;7.97;;;1.80;;
59127;SDS011;44912;52.754;5.994;2022-09-09T10:43:42;9.10;;;1.75;;
59127;SDS011;44912;52.754;5.994;2022-09-09T10:46:23;8.02;;;1.50;;
59127;SDS011;44912;52.754;5.994;2022-09-09T10:49:10;8.65;;;1.70;;
59127;SDS011;44912;52.754;5.994;2022-09-09T10:51:51;8.85;;;2.00;;
59127;SDS011;44912;52.754;5.994;2022-09-09T10:54:56;9.52;;;1.80;;
59127;SDS011;44912;52.754;5.994;2022-09-09T10:57:41;9.90;;;2.10;;
59127;SDS011;44912;52.754;5.994;2022-09-09T11:00:15;8.48;;;1.67;;
59127;SDS011;44912;52.754;5.994;2022-09-09T11:02:44;8.40;;;2.00;;
59127;SDS011;44912;52.754;5.994;2022-09-09T11:05:19;10.27;;;2.03;;
59127;SDS011;44912;52.754;5.994;2022-09-09T11:07:56;7.20;;;1.67;;
59127;SDS011;44912;52.754;5.994;2022-09-09T11:13:05;7.70;;;1.83;;
59127;SDS011;44912;52.754;5.994;2022-09-09T11:15:44;8.13;;;1.75;;
59127;SDS011;44912;52.754;5.994;2022-09-09T11:18:16;7.32;;;1.85;;
59127;SDS011;44912;52.754;5.994;2022-09-09T11:20:48;8.85;;;1.75;;
59127;SDS011;44912;52.754;5.994;2022-09-09T11:23:40;10.43;;;2.37;;
59127;SDS011;44912;52.754;5.994;2022-09-09T11:26:12;9.07;;;1.90;;
59127;SDS011;44912;52.754;5.994;2022-09-09T11:28:54;9.68;;;1.90;;
59127;SDS011;44912;52.754;5.994;2022-09-09T11:40:17;8.48;;;1.77;;
59127;SDS011;44912;52.754;5.994;2022-09-09T11:42:47;7.63;;;1.60;;
59127;SDS011;44912;52.754;5.994;2022-09-09T11:45:22;6.10;;;1.33;;
59127;SDS011;44912;52.754;5.994;2022-09-09T11:47:51;8.43;;;1.55;;
59127;SDS011;44912;52.754;5.994;2022-09-09T11:52:45;7.68;;;2.13;;
59127;SDS011;44912;52.754;5.994;2022-09-09T11:55:29;7.88;;;1.48;;
59127;SDS011;44912;52.754;5.994;2022-09-09T11:57:58;7.57;;;1.45;;
59127;SDS011;44912;52.754;5.994;2022-09-09T12:00:39;7.63;;;1.60;;
59127;SDS011;44912;52.754;5.994;2022-09-09T12:06:51;8.50;;;2.00;;
59127;SDS011;44912;52.754;5.994;2022-09-09T12:09:05;6.82;;;1.73;;
59127;SDS011;44912;52.754;5.994;2022-09-09T12:11:45;9.63;;;1.90;;
59127;SDS011;44912;52.754;5.994;2022-09-09T12:19:39;6.82;;;2.08;;
59127;SDS011;44912;52.754;5.994;2022-09-09T12:24:52;7.55;;;2.00;;
59127;SDS011;44912;52.754;5.994;2022-09-09T12:27:34;7.68;;;2.00;;
59127;SDS011;44912;52.754;5.994;2022-09-09T12:30:10;9.43;;;2.15;;
59127;SDS011;44912;52.754;5.994;2022-09-09T12:32:39;7.20;;;2.20;;
59127;SDS011;44912;52.754;5.994;2022-09-09T12:35:12;6.35;;;1.63;;
59127;SDS011;44912;52.754;5.994;2022-09-09T12:37:48;7.88;;;1.67;;
59127;SDS011;44912;52.754;5.994;2022-09-09T12:40:24;4.20;;;1.30;;
59127;SDS011;44912;52.754;5.994;2022-09-09T12:42:51;5.68;;;1.40;;
59127;SDS011;44912;52.754;5.994;2022-09-09T12:45:18;3.35;;;1.00;;
59127;SDS011;44912;52.754;5.994;2022-09-09T12:47:57;4.85;;;1.52;;
59127;SDS011;44912;52.754;5.994;2022-09-09T12:50:35;6.32;;;1.70;;
59127;SDS011;44912;52.754;5.994;2022-09-09T12:53:05;6.85;;;1.65;;
59127;SDS011;44912;52.754;5.994;2022-09-09T12:55:35;5.43;;;1.50;;
59127;SDS011;44912;52.754;5.994;2022-09-09T12:58:03;7.68;;;1.70;;
59127;SDS011;44912;52.754;5.994;2022-09-09T13:00:31;6.05;;;1.63;;
59127;SDS011;44912;52.754;5.994;2022-09-09T13:02:59;4.32;;;1.40;;
59127;SDS011;44912;52.754;5.994;2022-09-09T13:05:36;5.97;;;1.33;;
59127;SDS011;44912;52.754;5.994;2022-09-09T13:08:05;5.30;;;1.75;;
59127;SDS011;44912;52.754;5.994;2022-09-09T13:10:34;6.43;;;1.50;;
59127;SDS011;44912;52.754;5.994;2022-09-09T13:13:04;6.47;;;1.92;;
59127;SDS011;44912;52.754;5.994;2022-09-09T13:15:40;3.72;;;1.10;;
59127;SDS011;44912;52.754;5.994;2022-09-09T13:18:15;5.43;;;1.13;;
59127;SDS011;44912;52.754;5.994;2022-09-09T13:20:47;5.53;;;1.40;;
59127;SDS011;44912;52.754;5.994;2022-09-09T13:23:16;7.07;;;1.42;;
59127;SDS011;44912;52.754;5.994;2022-09-09T13:25:55;6.38;;;1.50;;
59127;SDS011;44912;52.754;5.994;2022-09-09T13:28:23;5.68;;;1.33;;
59127;SDS011;44912;52.754;5.994;2022-09-09T13:31:00;5.70;;;1.40;;
59127;SDS011;44912;52.754;5.994;2022-09-09T13:33:31;6.65;;;1.60;;
59127;SDS011;44912;52.754;5.994;2022-09-09T13:35:59;7.38;;;1.48;;
59127;SDS011;44912;52.754;5.994;2022-09-09T13:38:27;8.13;;;1.55;;
59127;SDS011;44912;52.754;5.994;2022-09-09T13:41:00;5.82;;;1.20;;
59127;SDS011;44912;52.754;5.994;2022-09-09T13:43:30;6.05;;;1.38;;
59127;SDS011;44912;52.754;5.994;2022-09-09T13:46:00;7.93;;;1.67;;
59127;SDS011;44912;52.754;5.994;2022-09-09T13:48:27;5.00;;;1.42;;
59127;SDS011;44912;52.754;5.994;2022-09-09T13:51:02;6.05;;;1.40;;
59127;SDS011;44912;52.754;5.994;2022-09-09T13:53:32;6.57;;;1.52;;
59127;SDS011;44912;52.754;5.994;2022-09-09T13:55:58;6.40;;;1.40;;
59127;SDS011;44912;52.754;5.994;2022-09-09T13:58:24;6.82;;;1.40;;
59127;SDS011;44912;52.754;5.994;2022-09-09T14:00:50;5.47;;;1.20;;
59127;SDS011;44912;52.754;5.994;2022-09-09T14:03:20;5.82;;;1.27;;
59127;SDS011;44912;52.754;5.994;2022-09-09T14:05:46;6.88;;;1.40;;
59127;SDS011;44912;52.754;5.994;2022-09-09T14:08:16;6.05;;;1.38;;
59127;SDS011;44912;52.754;5.994;2022-09-09T14:10:47;4.93;;;1.30;;
59127;SDS011;44912;52.754;5.994;2022-09-09T14:13:13;7.18;;;1.50;;
59127;SDS011;44912;52.754;5.994;2022-09-09T14:15:39;7.32;;;1.73;;
59127;SDS011;44912;52.754;5.994;2022-09-09T14:18:05;6.35;;;2.20;;
59127;SDS011;44912;52.754;5.994;2022-09-09T14:20:30;10.18;;;2.17;;
59127;SDS011;44912;52.754;5.994;2022-09-09T14:22:56;9.18;;;1.92;;
59127;SDS011;44912;52.754;5.994;2022-09-09T14:25:23;6.53;;;1.70;;
59127;SDS011;44912;52.754;5.994;2022-09-09T14:27:48;5.25;;;1.60;;
59127;SDS011;44912;52.754;5.994;2022-09-09T14:30:16;6.15;;;1.60;;
59127;SDS011;44912;52.754;5.994;2022-09-09T14:32:41;5.32;;;1.70;;
59127;SDS011;44912;52.754;5.994;2022-09-09T14:35:07;6.18;;;1.85;;
59127;SDS011;44912;52.754;5.994;2022-09-09T14:37:33;7.10;;;1.90;;
59127;SDS011;44912;52.754;5.994;2022-09-09T14:39:58;7.35;;;2.50;;
59127;SDS011;44912;52.754;5.994;2022-09-09T14:42:24;5.82;;;2.15;;
59127;SDS011;44912;52.754;5.994;2022-09-09T14:44:50;5.18;;;2.22;;
59127;SDS011;44912;52.754;5.994;2022-09-09T14:47:16;4.28;;;1.80;;
59127;SDS011;44912;52.754;5.994;2022-09-09T14:49:41;6.32;;;2.20;;
59127;SDS011;44912;52.754;5.994;2022-09-09T14:52:08;7.38;;;2.10;;
59127;SDS011;44912;52.754;5.994;2022-09-09T14:54:34;7.88;;;2.42;;
59127;SDS011;44912;52.754;5.994;2022-09-09T14:56:59;6.95;;;2.10;;
59127;SDS011;44912;52.754;5.994;2022-09-09T14:59:25;6.43;;;2.03;;
59127;SDS011;44912;52.754;5.994;2022-09-09T15:01:51;6.55;;;1.83;;
59127;SDS011;44912;52.754;5.994;2022-09-09T15:04:17;5.82;;;1.70;;
59127;SDS011;44912;52.754;5.994;2022-09-09T15:06:43;8.02;;;1.70;;
59127;SDS011;44912;52.754;5.994;2022-09-09T15:09:12;4.07;;;1.60;;
59127;SDS011;44912;52.754;5.994;2022-09-09T15:11:37;5.38;;;1.88;;
59127;SDS011;44912;52.754;5.994;2022-09-09T15:14:07;5.57;;;1.98;;
59127;SDS011;44912;52.754;5.994;2022-09-09T15:16:33;5.10;;;1.67;;
59127;SDS011;44912;52.754;5.994;2022-09-09T15:19:00;5.10;;;1.58;;
59127;SDS011;44912;52.754;5.994;2022-09-09T15:21:28;5.78;;;1.83;;
59127;SDS011;44912;52.754;5.994;2022-09-09T15:23:55;6.80;;;1.88;;
59127;SDS011;44912;52.754;5.994;2022-09-09T15:26:21;6.97;;;2.20;;
59127;SDS011;44912;52.754;5.994;2022-09-09T15:28:48;6.13;;;2.53;;
59127;SDS011;44912;52.754;5.994;2022-09-09T15:31:19;6.88;;;2.20;;
59127;SDS011;44912;52.754;5.994;2022-09-09T15:33:52;5.55;;;2.50;;
59127;SDS011;44912;52.754;5.994;2022-09-09T15:36:25;7.13;;;2.50;;
59127;SDS011;44912;52.754;5.994;2022-09-09T15:38:53;5.72;;;2.03;;
59127;SDS011;44912;52.754;5.994;2022-09-09T15:41:19;7.45;;;2.05;;
59127;SDS011;44912;52.754;5.994;2022-09-09T15:43:47;4.82;;;1.70;;
59127;SDS011;44912;52.754;5.994;2022-09-09T15:48:49;8.85;;;2.13;;
59127;SDS011;44912;52.754;5.994;2022-09-09T15:51:15;6.55;;;2.20;;
59127;SDS011;44912;52.754;5.994;2022-09-09T15:53:41;6.50;;;2.08;;
59127;SDS011;44912;52.754;5.994;2022-09-09T15:56:07;7.10;;;2.10;;
59127;SDS011;44912;52.754;5.994;2022-09-09T15:58:33;5.35;;;1.77;;
59127;SDS011;44912;52.754;5.994;2022-09-09T16:01:07;7.00;;;2.08;;
59127;SDS011;44912;52.754;5.994;2022-09-09T16:03:35;5.30;;;1.75;;
59127;SDS011;44912;52.754;5.994;2022-09-09T16:06:03;6.20;;;1.90;;
59127;SDS011;44912;52.754;5.994;2022-09-09T16:08:36;6.32;;;2.20;;
59127;SDS011;44912;52.754;5.994;2022-09-09T16:11:11;6.40;;;1.88;;
59127;SDS011;44912;52.754;5.994;2022-09-09T16:13:42;7.78;;;1.90;;
59127;SDS011;44912;52.754;5.994;2022-09-09T16:16:09;6.40;;;1.80;;
59127;SDS011;44912;52.754;5.994;2022-09-09T16:18:37;4.35;;;1.75;;
59127;SDS011;44912;52.754;5.994;2022-09-09T16:21:04;4.57;;;1.70;;